54IL weather

Rothrock Airport
Streator, Illinois, United States

Public forecast

Using degrees Fahrenheit for public forecast. Weather courtesy of forecast.io.

METAR (pilot weather report)

Closest report is Pontiac Municipal Airport, 14.7 nm (27.2 km) SSE. Retrieved 2019/08/19 19:35 UTC (0 seconds ago):

KPNT 191935Z AUTO 00000KT 10SM SCT070 31/22 A3001 RMK AO2 T03080216

TAF (pilot weather forecast)

Closest forecast is Central Illinois Regional Airport at Bloomington-Normal, 39.5 nm (73.1 km) S. Retrieved 2019/08/19 18:45 UTC (39 minutes ago):

TAF KBMI 191742Z 1918/2018 18004KT P6SM SCT040 FM191900 20005KT P6SM VCTS SCT030CB BKN050 FM200000 VRB04KT P6SM SCT250 TEMPO 2009/2013 3SM BR FM201600 17005KT P6SM VCTS BKN025CB